createdAt,value
2022-10-31T00:04:43.573Z,2.1739130434782608
2022-10-31T00:13:07.125Z,2.0635451505016724
2022-10-31T00:19:42.788Z,1.137123745819398
2022-10-31T00:26:31.023Z,2.197324414715719
2022-10-31T00:33:04.086Z,1.3812709030100334
2022-10-31T00:44:00.740Z,1.6688963210702341
2022-10-31T00:51:49.074Z,1.859531772575251
2022-10-31T00:58:21.960Z,2.280936454849498
2022-10-31T01:09:36.300Z,1.588628762541806
2022-10-31T01:19:47.585Z,1.8193979933110367
2022-10-31T01:28:47.028Z,2.0301003344481607
2022-10-31T01:35:20.190Z,1.9632107023411371
2022-10-31T01:41:52.539Z,2.25752508361204
2022-10-31T01:48:27.848Z,1.4949832775919731
2022-10-31T01:55:04.682Z,2.137123745819398
2022-10-31T02:01:38.817Z,1.7424749163879598
2022-10-31T02:08:14.299Z,2.157190635451505
2022-10-31T02:14:51.652Z,1.2441471571906355
2022-10-31T02:49:32.125Z,1.7759197324414715
2022-10-31T02:56:04.966Z,2.0
2022-10-31T03:07:20.069Z,1.68561872909699
2022-10-31T03:13:53.702Z,1.8695652173913044
2022-10-31T03:20:28.237Z,1.0568561872909699
2022-10-31T03:31:13.309Z,1.4682274247491638
2022-10-31T03:37:45.555Z,1.5183946488294315
2022-10-31T03:44:18.215Z,1.6989966555183946
2022-10-31T03:50:50.355Z,3.0301003344481607
2022-10-31T04:08:17.006Z,1.625418060200669
2022-10-31T04:15:13.590Z,1.9966555183946488
2022-10-31T04:22:58.414Z,1.4882943143812708
2022-10-31T04:29:31.087Z,1.2274247491638797
2022-10-31T04:48:05.424Z,1.5719063545150502
2022-10-31T04:54:43.939Z,1.1839464882943145
2022-10-31T05:01:14.728Z,1.31438127090301
2022-10-31T05:07:44.543Z,1.2240802675585285
2022-10-31T05:15:20.447Z,1.1471571906354514
2022-10-31T05:21:51.284Z,1.2508361204013378
2022-10-31T05:30:01.318Z,1.0501672240802675
2022-10-31T05:36:31.357Z,1.0568561872909699
2022-10-31T05:43:01.835Z,0.7892976588628763
2022-10-31T05:49:32.819Z,0.5418060200668896
2022-10-31T06:01:25.764Z,1.0434782608695652
2022-10-31T06:07:55.130Z,0.9765886287625418
2022-10-31T06:14:27.765Z,0.5819397993311036
2022-10-31T06:26:55.590Z,1.1806020066889633
2022-10-31T06:35:40.190Z,0.9632107023411371
2022-10-31T06:42:10.505Z,0.6421404682274248
2022-10-31T06:48:40.542Z,0.7558528428093646
2022-10-31T06:57:47.159Z,0.6354515050167224
2022-10-31T07:09:58.087Z,0.5484949832775919
2022-10-31T07:20:13.285Z,0.5217391304347826
2022-10-31T07:28:45.185Z,1.0
2022-10-31T07:35:16.852Z,0.41471571906354515
2022-10-31T07:41:45.946Z,0.6755852842809364
2022-10-31T07:50:20.582Z,0.4682274247491639
2022-10-31T07:56:50.511Z,0.5551839464882943
2022-10-31T08:03:20.956Z,0.4414715719063545
2022-10-31T08:09:50.783Z,0.6622073578595318
2022-10-31T08:17:04.426Z,0.5819397993311036
2022-10-31T08:37:26.447Z,0.3745819397993311
2022-10-31T08:44:00.424Z,0.6755852842809364
2022-10-31T08:53:12.846Z,1.2642140468227425
2022-10-31T08:59:45.126Z,1.0100334448160535
2022-10-31T09:06:17.021Z,1.3177257525083612
2022-10-31T09:14:28.437Z,0.7424749163879598
2022-10-31T09:21:04.242Z,0.7157190635451505
2022-10-31T09:29:23.865Z,0.802675585284281
2022-10-31T09:45:37.700Z,1.2441471571906355
2022-10-31T09:52:12.021Z,0.9163879598662207
2022-10-31T10:01:45.190Z,1.060200668896321
2022-10-31T10:09:32.404Z,0.6521739130434783
2022-10-31T10:23:02.520Z,1.157190635451505
2022-10-31T10:29:36.903Z,0.7023411371237458
2022-10-31T10:43:39.885Z,1.137123745819398
2022-10-31T10:59:36.043Z,1.5384615384615385
2022-10-31T11:06:10.590Z,1.491638795986622
2022-10-31T11:12:44.641Z,0.6956521739130435
2022-10-31T11:19:19.929Z,0.9163879598662207
2022-10-31T11:26:05.355Z,1.0234113712374582
2022-10-31T11:37:37.781Z,1.3779264214046822
2022-10-31T11:44:11.308Z,1.354515050167224
2022-10-31T11:50:42.622Z,1.5183946488294315
2022-10-31T11:57:15.974Z,1.7591973244147157
2022-10-31T12:09:39.925Z,2.240802675585284
2022-10-31T12:33:25.827Z,1.3846153846153846
2022-10-31T12:40:01.270Z,1.117056856187291
2022-10-31T12:46:36.211Z,1.0702341137123745
2022-10-31T12:56:32.093Z,1.9297658862876255
2022-10-31T13:18:27.817Z,1.5150501672240804
2022-10-31T13:25:07.956Z,1.8662207357859533
2022-10-31T13:31:41.209Z,1.8862876254180603
2022-10-31T13:38:17.415Z,1.2809364548494984
2022-10-31T13:44:50.768Z,1.3210702341137124
2022-10-31T13:57:11.655Z,1.9565217391304348
2022-10-31T14:13:43.831Z,1.3277591973244147
2022-10-31T14:20:20.331Z,2.197324414715719
2022-10-31T14:28:46.635Z,1.7157190635451505
2022-10-31T14:44:12.126Z,1.6387959866220736
2022-10-31T14:50:49.296Z,1.351170568561873
2022-10-31T15:12:20.273Z,1.1906354515050168
2022-10-31T15:20:57.407Z,1.3043478260869565
2022-10-31T15:40:16.454Z,0.8896321070234113
2022-10-31T15:47:03.671Z,1.2642140468227425
2022-10-31T15:53:35.221Z,2.0100334448160537
2022-10-31T16:13:53.375Z,1.0434782608695652
2022-10-31T16:20:30.479Z,1.9933110367892977
2022-10-31T16:27:01.918Z,2.3377926421404682
2022-10-31T16:33:29.044Z,1.5183946488294315
2022-10-31T16:42:25.622Z,2.2675585284280935
2022-10-31T16:48:53.031Z,1.8896321070234114
2022-10-31T17:02:46.515Z,1.374581939799331
2022-10-31T17:11:07.386Z,1.2107023411371238
2022-10-31T17:17:34.443Z,1.7123745819397993
2022-10-31T17:24:11.402Z,1.7926421404682273
2022-10-31T17:31:28.035Z,1.4013377926421404
2022-10-31T17:37:55.945Z,1.140468227424749
2022-10-31T17:53:28.162Z,1.1906354515050168
2022-10-31T17:59:56.915Z,1.5183946488294315
2022-10-31T18:06:27.222Z,1.1270903010033444
2022-10-31T18:16:42.178Z,1.2675585284280937
2022-10-31T18:32:51.369Z,1.1337792642140467
2022-10-31T18:39:20.192Z,0.9899665551839465
2022-10-31T18:45:52.314Z,0.6086956521739131
2022-10-31T18:52:24.784Z,0.9096989966555183
2022-10-31T18:58:53.577Z,0.7959866220735786
2022-10-31T19:05:22.410Z,0.8093645484949833
2022-10-31T19:11:51.327Z,0.6086956521739131
2022-10-31T19:18:19.986Z,0.9297658862876255
2022-10-31T19:25:03.018Z,0.7324414715719063
2022-10-31T19:31:41.057Z,0.9531772575250836
2022-10-31T19:38:21.009Z,0.9297658862876255
2022-10-31T19:50:10.078Z,1.0033444816053512
2022-10-31T19:58:28.946Z,0.7558528428093646
2022-10-31T20:12:59.980Z,2.2040133779264215
2022-10-31T20:21:04.522Z,1.508361204013378
2022-10-31T20:31:08.438Z,2.177257525083612
2022-10-31T20:48:03.195Z,1.8963210702341138
2022-10-31T20:56:42.654Z,2.1872909698996654
2022-10-31T21:05:26.695Z,1.959866220735786
2022-10-31T21:13:02.351Z,1.565217391304348
2022-10-31T21:33:21.793Z,2.120401337792642
2022-10-31T21:41:09.898Z,2.240802675585284
2022-10-31T21:48:57.471Z,3.0100334448160537
2022-10-31T21:56:53.015Z,2.3277591973244145
2022-10-31T22:04:47.083Z,2.7926421404682276
2022-10-31T22:15:24.463Z,2.528428093645485
2022-10-31T22:23:27.200Z,3.1103678929765888
2022-10-31T22:38:43.853Z,3.5351170568561874
2022-10-31T22:46:46.327Z,3.74247491638796
2022-10-31T22:54:39.412Z,3.4615384615384617
2022-10-31T23:09:09.070Z,3.274247491638796
2022-10-31T23:15:36.596Z,4.040133779264214
2022-10-31T23:22:04.269Z,3.3745819397993313
2022-10-31T23:31:14.142Z,4.050167224080267
2022-10-31T23:37:42.733Z,3.782608695652174
2022-10-31T23:55:50.150Z,3.6020066889632107
